createdAt,value
2022-12-03T00:00:11.925Z,25.92
2022-12-03T00:02:39.536Z,22.48
2022-12-03T00:05:06.512Z,22.75
2022-12-03T00:07:33.180Z,25.25
2022-12-03T00:09:59.786Z,25.08
2022-12-03T00:12:26.309Z,28.17
2022-12-03T00:14:52.976Z,23.52
2022-12-03T00:17:19.600Z,24.67
2022-12-03T00:19:46.263Z,28.73
2022-12-03T00:22:13.681Z,24.30
2022-12-03T00:24:40.230Z,30.90
2022-12-03T00:27:06.768Z,24.77
2022-12-03T00:29:33.339Z,22.42
2022-12-03T00:31:59.857Z,31.80
2022-12-03T00:34:26.418Z,25.15
2022-12-03T00:36:52.950Z,25.75
2022-12-03T00:39:19.498Z,32.35
2022-12-03T00:41:46.055Z,28.08
2022-12-03T00:44:12.554Z,31.85
2022-12-03T00:46:39.463Z,31.52
2022-12-03T00:49:06.022Z,23.77
2022-12-03T00:51:34.909Z,27.05
2022-12-03T00:54:01.719Z,29.13
2022-12-03T00:56:28.285Z,31.65
2022-12-03T00:58:54.808Z,32.38
2022-12-03T01:01:21.450Z,32.83
2022-12-03T01:03:48.002Z,31.13
2022-12-03T01:06:14.502Z,32.67
2022-12-03T01:08:40.966Z,31.38
2022-12-03T01:11:07.496Z,36.97
2022-12-03T01:13:34.015Z,33.00
2022-12-03T01:16:00.643Z,29.95
2022-12-03T01:18:27.219Z,32.97
2022-12-03T01:20:53.841Z,34.80
2022-12-03T01:23:20.381Z,29.42
2022-12-03T01:25:46.950Z,33.40
2022-12-03T01:28:13.461Z,32.15
2022-12-03T01:30:40.011Z,38.70
2022-12-03T01:33:06.491Z,33.47
2022-12-03T01:35:33.028Z,29.90
2022-12-03T01:37:59.525Z,31.08
2022-12-03T01:40:26.051Z,29.83
2022-12-03T01:42:52.548Z,30.42
2022-12-03T01:45:23.624Z,31.45
2022-12-03T01:47:50.169Z,30.60
2022-12-03T01:50:22.911Z,37.47
2022-12-03T01:52:49.573Z,31.55
2022-12-03T01:55:21.831Z,25.40
2022-12-03T01:57:54.624Z,30.20
2022-12-03T02:00:24.418Z,29.02
2022-12-03T02:03:00.304Z,27.38
2022-12-03T02:05:30.057Z,26.70
2022-12-03T02:07:57.900Z,32.25
2022-12-03T02:10:34.200Z,28.73
2022-12-03T02:13:09.067Z,30.15
2022-12-03T02:15:38.210Z,28.88
2022-12-03T02:18:04.978Z,32.50
2022-12-03T02:20:35.854Z,22.10
2022-12-03T02:23:02.299Z,21.10
2022-12-03T02:25:32.187Z,32.35
2022-12-03T02:28:00.503Z,32.88
2022-12-03T02:30:29.611Z,26.08
2022-12-03T02:32:57.502Z,32.75
2022-12-03T02:35:35.802Z,26.15
2022-12-03T02:38:19.861Z,28.20
2022-12-03T02:40:49.302Z,27.17
2022-12-03T02:43:17.179Z,22.33
2022-12-03T02:45:46.632Z,22.38
2022-12-03T02:48:19.896Z,20.20
2022-12-03T02:50:52.637Z,19.08
2022-12-03T02:53:22.069Z,16.75
2022-12-03T02:55:50.338Z,17.92
2022-12-03T02:58:17.940Z,17.35
2022-12-03T03:00:45.859Z,15.02
2022-12-03T03:03:13.121Z,13.07
2022-12-03T03:05:40.603Z,18.05
2022-12-03T03:08:08.826Z,14.52
2022-12-03T03:10:39.678Z,17.25
2022-12-03T03:13:10.688Z,15.37
2022-12-03T03:15:39.301Z,11.13
2022-12-03T03:18:11.010Z,10.43
2022-12-03T03:20:38.708Z,13.25
2022-12-03T03:23:19.971Z,11.65
2022-12-03T03:26:11.336Z,15.07
2022-12-03T03:28:44.860Z,19.92
2022-12-03T03:31:14.040Z,17.70
2022-12-03T03:33:43.612Z,17.17
2022-12-03T03:36:10.742Z,19.52
2022-12-03T03:38:38.107Z,19.63
2022-12-03T03:41:06.215Z,18.55
2022-12-03T03:43:34.690Z,16.90
2022-12-03T03:46:03.718Z,24.00
2022-12-03T03:48:30.694Z,16.85
2022-12-03T03:50:57.458Z,20.38
2022-12-03T03:53:24.507Z,21.83
2022-12-03T03:55:51.359Z,24.65
2022-12-03T03:58:17.946Z,17.08
2022-12-03T04:00:45.327Z,19.92
2022-12-03T04:03:12.624Z,17.92
2022-12-03T04:05:39.868Z,20.27
2022-12-03T04:08:06.448Z,19.08
2022-12-03T04:10:33.028Z,20.38
2022-12-03T04:13:00.104Z,19.40
2022-12-03T04:15:27.306Z,23.20
2022-12-03T04:17:54.031Z,17.70
2022-12-03T04:20:20.588Z,23.10
2022-12-03T04:22:47.122Z,21.05
2022-12-03T04:25:13.676Z,16.92
2022-12-03T04:27:40.174Z,15.82
2022-12-03T04:30:07.262Z,14.57
2022-12-03T04:32:33.733Z,20.67
2022-12-03T04:35:00.269Z,15.05
2022-12-03T04:37:26.755Z,20.90
2022-12-03T04:39:53.284Z,19.30
2022-12-03T04:42:19.825Z,18.55
2022-12-03T04:44:46.343Z,16.83
2022-12-03T04:47:16.182Z,15.80
2022-12-03T04:49:47.421Z,17.48
2022-12-03T04:52:16.525Z,17.23
2022-12-03T04:54:43.310Z,15.50
2022-12-03T04:57:10.885Z,14.63
2022-12-03T04:59:38.448Z,18.45
2022-12-03T05:02:06.556Z,18.10
2022-12-03T05:04:33.820Z,16.33
2022-12-03T05:07:00.349Z,14.23
2022-12-03T05:09:26.861Z,18.00
2022-12-03T05:11:53.492Z,14.27
2022-12-03T05:14:20.022Z,17.00
2022-12-03T05:16:46.617Z,15.80
2022-12-03T05:19:13.136Z,14.82
2022-12-03T05:21:39.701Z,17.35
2022-12-03T05:24:06.442Z,12.63
2022-12-03T05:26:33.077Z,17.88
2022-12-03T05:29:01.177Z,13.48
2022-12-03T05:31:27.868Z,13.82
2022-12-03T05:33:54.382Z,14.15
2022-12-03T05:36:20.912Z,12.77
2022-12-03T05:38:47.444Z,19.75
2022-12-03T05:41:13.968Z,18.77
2022-12-03T05:43:40.472Z,14.32
2022-12-03T05:46:07.044Z,14.32
2022-12-03T05:48:33.590Z,12.10
2022-12-03T05:51:00.131Z,14.43
2022-12-03T05:53:26.649Z,14.60
2022-12-03T05:55:53.171Z,12.75
2022-12-03T05:58:19.668Z,26.48
2022-12-03T06:00:46.151Z,17.05
2022-12-03T06:03:12.702Z,14.98
2022-12-03T06:05:39.286Z,12.00
2022-12-03T06:08:05.907Z,13.30
2022-12-03T06:10:32.531Z,15.25
2022-12-03T06:12:58.987Z,14.88
2022-12-03T06:15:25.532Z,15.68
2022-12-03T06:17:52.077Z,15.32
2022-12-03T06:20:20.341Z,14.25
2022-12-03T06:23:01.925Z,14.50
2022-12-03T06:25:28.424Z,13.68
2022-12-03T06:27:54.904Z,14.20
2022-12-03T06:30:21.483Z,12.98
2022-12-03T06:32:48.005Z,14.25
2022-12-03T06:35:14.668Z,13.90
2022-12-03T06:37:41.161Z,12.95
2022-12-03T06:40:08.369Z,12.32
2022-12-03T06:42:34.828Z,14.43
2022-12-03T06:45:01.364Z,15.25
2022-12-03T06:47:29.627Z,10.32
2022-12-03T06:49:56.172Z,11.07
2022-12-03T06:52:22.668Z,14.40
2022-12-03T06:54:49.360Z,13.57
2022-12-03T06:57:15.860Z,10.52
2022-12-03T06:59:42.415Z,14.45
2022-12-03T07:02:10.302Z,19.33
2022-12-03T07:04:36.845Z,15.55
2022-12-03T07:07:03.395Z,14.20
2022-12-03T07:09:29.939Z,11.35
2022-12-03T07:11:57.086Z,16.48
2022-12-03T07:14:23.707Z,12.07
2022-12-03T07:16:50.220Z,14.95
2022-12-03T07:19:16.794Z,15.55
2022-12-03T07:21:43.321Z,13.70
2022-12-03T07:24:10.140Z,12.60
2022-12-03T07:26:36.676Z,15.32
2022-12-03T07:29:03.412Z,9.65
2022-12-03T07:31:30.012Z,11.63
2022-12-03T07:33:56.573Z,13.90
2022-12-03T07:36:23.382Z,11.52
2022-12-03T07:38:49.919Z,11.77
2022-12-03T07:41:16.534Z,10.20
2022-12-03T07:43:43.114Z,9.63
2022-12-03T07:46:09.718Z,13.60
2022-12-03T07:48:36.355Z,12.48
2022-12-03T07:51:03.005Z,11.98
2022-12-03T07:53:29.521Z,9.23
2022-12-03T07:55:56.003Z,11.77
2022-12-03T07:58:22.541Z,8.77
2022-12-03T08:00:49.274Z,11.80
2022-12-03T08:03:15.878Z,10.38
2022-12-03T08:05:42.380Z,10.70
2022-12-03T08:08:09.049Z,9.43
2022-12-03T08:10:35.643Z,11.32
2022-12-03T08:13:06.617Z,13.55
2022-12-03T08:15:39.099Z,9.57
2022-12-03T08:18:32.731Z,10.93
2022-12-03T08:20:59.313Z,9.13
2022-12-03T08:23:26.473Z,12.88
2022-12-03T08:25:53.135Z,12.60
2022-12-03T08:28:27.026Z,11.07
2022-12-03T08:31:09.736Z,11.85
2022-12-03T08:33:37.246Z,10.45
2022-12-03T08:36:25.253Z,14.75
2022-12-03T08:38:55.779Z,7.93
2022-12-03T08:41:22.884Z,13.10
2022-12-03T08:43:49.571Z,9.45
2022-12-03T08:46:19.033Z,8.95
2022-12-03T08:48:49.117Z,10.57
2022-12-03T08:51:22.573Z,13.63
2022-12-03T08:54:01.816Z,12.63
2022-12-03T08:56:30.833Z,8.65
2022-12-03T08:59:16.775Z,10.15
2022-12-03T09:01:45.734Z,13.73
2022-12-03T09:04:27.666Z,12.40
2022-12-03T09:06:55.020Z,7.53
2022-12-03T09:09:22.358Z,10.32
2022-12-03T09:11:49.789Z,11.07
2022-12-03T09:14:18.732Z,9.70
2022-12-03T09:16:46.012Z,11.20
2022-12-03T09:19:12.791Z,11.95
2022-12-03T09:21:39.375Z,8.88
2022-12-03T09:24:06.495Z,10.48
2022-12-03T09:26:33.059Z,7.55
2022-12-03T09:28:59.660Z,9.82
2022-12-03T09:31:26.320Z,10.90
2022-12-03T09:33:52.909Z,7.15
2022-12-03T09:36:19.463Z,10.35
2022-12-03T09:38:48.065Z,14.98
2022-12-03T09:41:14.944Z,9.93
2022-12-03T09:46:29.808Z,10.85
2022-12-03T09:48:56.490Z,12.55
2022-12-03T09:51:32.578Z,17.30
2022-12-03T09:54:01.401Z,11.70
2022-12-03T09:56:27.971Z,13.70
2022-12-03T09:58:54.688Z,10.90
2022-12-03T10:01:21.876Z,15.40
2022-12-03T10:03:51.106Z,15.20
2022-12-03T10:06:23.464Z,15.75
2022-12-03T10:08:54.621Z,10.40
2022-12-03T10:11:24.393Z,10.02
2022-12-03T10:13:54.035Z,14.70
2022-12-03T10:16:21.529Z,11.02
2022-12-03T10:18:54.260Z,9.95
2022-12-03T10:21:30.513Z,12.70
2022-12-03T10:24:20.458Z,9.27
2022-12-03T10:26:48.817Z,10.55
2022-12-03T10:29:23.178Z,7.05
2022-12-03T10:32:00.183Z,12.15
2022-12-03T10:34:31.993Z,9.35
2022-12-03T10:37:25.081Z,7.63
2022-12-03T10:40:13.092Z,11.05
2022-12-03T10:42:41.066Z,9.32
2022-12-03T10:45:16.833Z,7.50
2022-12-03T10:48:01.612Z,12.40
2022-12-03T10:50:29.089Z,9.15
2022-12-03T10:52:55.896Z,10.55
2022-12-03T10:55:22.560Z,8.88
2022-12-03T10:57:49.166Z,11.88
2022-12-03T11:00:18.464Z,9.10
2022-12-03T11:02:50.417Z,7.35
2022-12-03T11:05:25.581Z,7.60
2022-12-03T11:07:52.551Z,10.43
2022-12-03T11:10:19.634Z,13.13
2022-12-03T11:13:24.181Z,7.75
2022-12-03T11:15:50.905Z,13.93
2022-12-03T11:18:36.054Z,15.43
2022-12-03T11:21:04.878Z,11.07
2022-12-03T11:23:47.035Z,11.73
2022-12-03T11:26:38.251Z,12.48
2022-12-03T11:29:13.791Z,14.77
2022-12-03T11:31:48.122Z,10.98
2022-12-03T11:34:20.943Z,12.27
2022-12-03T11:37:09.572Z,15.65
2022-12-03T11:39:45.652Z,15.00
2022-12-03T11:42:22.591Z,16.17
2022-12-03T11:45:04.478Z,13.85
2022-12-03T11:47:36.967Z,10.00
2022-12-03T11:50:21.373Z,12.10
2022-12-03T11:53:12.888Z,10.45
2022-12-03T11:55:42.811Z,13.50
2022-12-03T11:58:26.271Z,12.70
2022-12-03T12:01:00.976Z,20.85
2022-12-03T12:03:29.342Z,16.67
2022-12-03T12:06:12.690Z,17.25
2022-12-03T12:08:54.688Z,22.13
2022-12-03T12:11:30.412Z,14.15
2022-12-03T12:14:02.083Z,18.35
2022-12-03T12:19:42.530Z,16.98
2022-12-03T12:22:29.717Z,12.95
2022-12-03T12:24:57.415Z,11.40
2022-12-03T12:27:40.293Z,12.98
2022-12-03T12:30:14.862Z,13.43
2022-12-03T12:32:49.129Z,13.32
2022-12-03T12:35:23.145Z,11.98
2022-12-03T12:37:56.628Z,16.30
2022-12-03T12:40:31.614Z,13.82
2022-12-03T12:43:04.187Z,14.80
2022-12-03T12:45:36.875Z,16.65
2022-12-03T12:48:30.939Z,17.02
2022-12-03T12:51:14.823Z,14.50
2022-12-03T12:53:41.680Z,17.88
2022-12-03T12:56:37.792Z,14.45
2022-12-03T12:59:19.748Z,14.52
2022-12-03T13:01:48.248Z,13.13
2022-12-03T13:04:23.288Z,11.20
2022-12-03T13:06:52.812Z,16.20
2022-12-03T13:09:21.921Z,20.67
2022-12-03T13:11:53.533Z,16.60
2022-12-03T13:16:53.447Z,12.50
2022-12-03T13:19:24.530Z,19.10
2022-12-03T13:21:55.707Z,11.57
2022-12-03T13:24:45.743Z,20.27
2022-12-03T13:27:18.562Z,12.45
2022-12-03T13:29:53.266Z,16.13
2022-12-03T13:32:23.430Z,17.05
2022-12-03T13:34:50.013Z,12.60
2022-12-03T13:37:20.903Z,21.75
2022-12-03T13:39:50.096Z,18.52
2022-12-03T13:42:22.568Z,16.52
2022-12-03T13:44:49.925Z,12.45
2022-12-03T13:47:20.672Z,16.02
2022-12-03T13:49:52.392Z,15.00
2022-12-03T13:52:21.998Z,15.27
2022-12-03T13:54:51.336Z,16.65
2022-12-03T13:57:18.115Z,16.30
2022-12-03T13:59:44.844Z,14.32
2022-12-03T14:02:11.416Z,17.40
2022-12-03T14:04:38.488Z,14.68
2022-12-03T14:07:05.773Z,18.38
2022-12-03T14:09:32.484Z,17.52
2022-12-03T14:11:59.027Z,12.98
2022-12-03T14:14:25.554Z,27.27
2022-12-03T14:16:59.526Z,13.48
2022-12-03T14:19:26.922Z,14.20
2022-12-03T14:21:53.603Z,13.38
2022-12-03T14:24:20.280Z,18.20
2022-12-03T14:26:46.851Z,18.42
2022-12-03T14:29:13.441Z,17.30
2022-12-03T14:31:49.775Z,16.00
2022-12-03T14:34:17.646Z,13.88
2022-12-03T14:36:44.431Z,15.13
2022-12-03T14:39:11.072Z,19.30
2022-12-03T14:41:37.656Z,12.88
2022-12-03T14:44:04.386Z,44.35
2022-12-03T14:46:32.885Z,23.20
2022-12-03T14:48:59.481Z,15.77
2022-12-03T14:51:26.189Z,18.27
2022-12-03T14:53:52.816Z,16.25
2022-12-03T14:56:19.701Z,14.07
2022-12-03T14:58:46.223Z,15.00
2022-12-03T15:01:12.778Z,15.80
2022-12-03T15:03:39.499Z,16.88
2022-12-03T15:06:06.372Z,13.80
2022-12-03T15:08:33.010Z,20.73
2022-12-03T15:10:59.643Z,13.95
2022-12-03T15:13:26.229Z,20.63
2022-12-03T15:15:52.748Z,15.38
2022-12-03T15:18:19.405Z,16.10
2022-12-03T15:20:46.147Z,16.85
2022-12-03T15:23:14.443Z,18.10
2022-12-03T15:25:41.353Z,22.15
2022-12-03T15:28:07.920Z,17.08
2022-12-03T15:30:34.463Z,17.33
2022-12-03T15:33:01.983Z,15.43
2022-12-03T15:35:31.676Z,13.15
2022-12-03T15:37:59.121Z,16.70
2022-12-03T15:40:26.391Z,19.65
2022-12-03T15:42:52.955Z,17.58
2022-12-03T15:45:19.641Z,18.50
2022-12-03T15:47:46.234Z,17.92
2022-12-03T15:50:13.061Z,19.08
2022-12-03T15:52:40.106Z,20.05
2022-12-03T15:55:07.054Z,18.73
2022-12-03T15:57:33.606Z,23.58
2022-12-03T16:00:02.615Z,17.52
2022-12-03T16:02:39.041Z,21.42
2022-12-03T16:05:08.541Z,23.88
2022-12-03T16:07:35.383Z,18.33
2022-12-03T16:10:02.174Z,23.35
2022-12-03T16:12:28.922Z,16.75
2022-12-03T16:14:55.492Z,17.63
2022-12-03T16:17:22.107Z,19.45
2022-12-03T16:19:48.708Z,22.02
2022-12-03T16:22:15.837Z,19.02
2022-12-03T16:24:42.473Z,21.10
2022-12-03T16:27:09.280Z,20.67
2022-12-03T16:29:35.817Z,19.58
2022-12-03T16:32:02.511Z,17.95
2022-12-03T16:34:29.091Z,23.25
2022-12-03T16:36:55.920Z,22.13
2022-12-03T16:39:22.623Z,26.35
2022-12-03T16:41:49.152Z,23.92
2022-12-03T16:44:15.937Z,27.17
2022-12-03T16:46:42.587Z,23.15
2022-12-03T16:49:09.428Z,27.55
2022-12-03T16:51:35.940Z,29.75
2022-12-03T16:54:02.589Z,27.83
2022-12-03T16:56:29.163Z,20.42
2022-12-03T16:58:56.747Z,25.90
2022-12-03T17:01:23.542Z,21.30
2022-12-03T17:03:50.593Z,22.65
2022-12-03T17:06:17.186Z,26.58
2022-12-03T17:08:49.100Z,22.27
2022-12-03T17:11:16.686Z,23.90
2022-12-03T17:13:43.212Z,30.73
2022-12-03T17:16:09.962Z,27.05
2022-12-03T17:18:36.658Z,20.45
2022-12-03T17:21:03.432Z,19.52
2022-12-03T17:23:29.983Z,32.35
2022-12-03T17:25:56.637Z,28.42
2022-12-03T17:28:23.322Z,29.90
2022-12-03T17:30:50.151Z,22.70
2022-12-03T17:33:16.853Z,23.70
2022-12-03T17:35:43.462Z,24.27
2022-12-03T17:38:10.135Z,21.38
2022-12-03T17:40:36.758Z,20.10
2022-12-03T17:43:03.311Z,21.27
2022-12-03T17:45:29.852Z,20.67
2022-12-03T17:47:56.497Z,19.35
2022-12-03T17:50:24.644Z,22.40
2022-12-03T17:52:51.433Z,23.30
2022-12-03T17:55:27.711Z,17.75
2022-12-03T17:57:57.946Z,19.70
2022-12-03T18:00:24.692Z,20.30
2022-12-03T18:02:51.839Z,23.27
2022-12-03T18:05:18.725Z,18.88
2022-12-03T18:07:45.378Z,18.58
2022-12-03T18:10:11.973Z,20.45
2022-12-03T18:12:38.668Z,17.25
2022-12-03T18:15:05.597Z,18.63
2022-12-03T18:17:32.186Z,25.17
2022-12-03T18:19:58.842Z,21.08
2022-12-03T18:22:25.765Z,21.23
2022-12-03T18:24:52.356Z,21.75
2022-12-03T18:27:21.092Z,19.58
2022-12-03T18:29:47.980Z,22.42
2022-12-03T18:32:28.252Z,21.63
2022-12-03T18:34:55.570Z,21.50
2022-12-03T18:37:26.025Z,21.92
2022-12-03T18:39:53.354Z,19.30
2022-12-03T18:42:23.336Z,18.55
2022-12-03T18:44:53.711Z,21.27
2022-12-03T18:47:22.604Z,23.08
2022-12-03T18:49:49.601Z,25.65
2022-12-03T18:52:19.225Z,20.83
2022-12-03T18:54:46.111Z,24.75
2022-12-03T18:57:12.794Z,21.80
2022-12-03T18:59:39.935Z,18.20
2022-12-03T19:02:07.896Z,23.92
2022-12-03T19:04:34.538Z,22.85
2022-12-03T19:07:02.209Z,26.92
2022-12-03T19:09:28.792Z,27.08
2022-12-03T19:11:55.617Z,23.63
2022-12-03T19:14:22.214Z,23.55
2022-12-03T19:16:48.770Z,30.85
2022-12-03T19:19:15.594Z,46.92
2022-12-03T19:21:42.312Z,49.00
2022-12-03T19:24:25.431Z,40.72
2022-12-03T19:26:52.293Z,37.85
2022-12-03T19:29:18.867Z,38.38
2022-12-03T19:31:45.664Z,38.85
2022-12-03T19:34:12.244Z,47.47
2022-12-03T19:36:38.797Z,26.27
2022-12-03T19:39:05.365Z,24.77
2022-12-03T19:41:31.920Z,26.77
2022-12-03T19:43:59.092Z,20.25
2022-12-03T19:46:27.706Z,19.17
2022-12-03T19:48:54.677Z,19.67
2022-12-03T19:51:34.171Z,21.70
2022-12-03T19:54:02.218Z,18.08
2022-12-03T19:56:28.918Z,21.20
2022-12-03T19:58:56.221Z,23.35
2022-12-03T20:01:25.819Z,18.85
2022-12-03T20:03:55.494Z,21.58
2022-12-03T20:06:24.439Z,19.67
2022-12-03T20:08:55.787Z,23.73
2022-12-03T20:11:25.314Z,24.98
2022-12-03T20:13:56.976Z,26.20
2022-12-03T20:16:24.913Z,21.70
2022-12-03T20:18:55.939Z,26.13
2022-12-03T20:21:23.817Z,24.90
2022-12-03T20:23:50.632Z,27.60
2022-12-03T20:26:19.696Z,22.92
2022-12-03T20:28:47.599Z,25.40
2022-12-03T20:31:19.250Z,24.27
2022-12-03T20:36:16.550Z,26.80
2022-12-03T20:38:43.624Z,21.23
2022-12-03T20:41:12.458Z,24.15
2022-12-03T20:43:39.185Z,22.23
2022-12-03T20:46:09.622Z,22.30
2022-12-03T20:48:37.102Z,28.77
2022-12-03T20:51:06.113Z,25.63
2022-12-03T20:53:33.460Z,24.85
2022-12-03T20:56:01.482Z,22.70
2022-12-03T20:58:29.047Z,24.42
2022-12-03T21:00:56.217Z,24.65
2022-12-03T21:03:22.968Z,28.30
2022-12-03T21:05:49.781Z,19.10
2022-12-03T21:08:27.943Z,25.23
2022-12-03T21:11:07.902Z,17.75
2022-12-03T21:13:34.684Z,17.27
2022-12-03T21:16:07.556Z,19.88
2022-12-03T21:18:35.321Z,19.50
2022-12-03T21:21:03.176Z,23.00
2022-12-03T21:23:31.100Z,17.50
2022-12-03T21:26:05.125Z,17.02
2022-12-03T21:28:33.016Z,23.83
2022-12-03T21:31:01.888Z,18.42
2022-12-03T21:33:29.527Z,21.77
2022-12-03T21:35:56.456Z,26.88
2022-12-03T21:38:23.817Z,17.45
2022-12-03T21:40:50.425Z,19.90
2022-12-03T21:43:17.038Z,17.85
2022-12-03T21:45:44.198Z,20.08
2022-12-03T21:48:11.259Z,17.98
2022-12-03T21:50:37.840Z,19.98
2022-12-03T21:53:04.476Z,17.33
2022-12-03T21:55:31.365Z,20.00
2022-12-03T21:57:57.948Z,18.80
2022-12-03T22:00:24.649Z,14.68
2022-12-03T22:02:51.451Z,15.65
2022-12-03T22:05:18.131Z,16.20
2022-12-03T22:07:44.821Z,19.25
2022-12-03T22:10:12.477Z,20.98
2022-12-03T22:12:39.265Z,19.38
2022-12-03T22:15:06.548Z,23.38
2022-12-03T22:17:35.952Z,14.98
2022-12-03T22:20:04.024Z,13.27
2022-12-03T22:22:30.659Z,17.50
2022-12-03T22:24:57.677Z,18.30
2022-12-03T22:27:24.871Z,14.32
2022-12-03T22:29:51.666Z,16.73
2022-12-03T22:32:18.272Z,16.10
2022-12-03T22:34:44.789Z,14.90
2022-12-03T22:37:11.445Z,18.90
2022-12-03T22:39:38.002Z,17.15
2022-12-03T22:42:04.782Z,16.30
2022-12-03T22:44:31.381Z,19.10
2022-12-03T22:46:58.053Z,20.15
2022-12-03T22:49:25.851Z,16.50
2022-12-03T22:51:52.376Z,19.80
2022-12-03T22:54:23.719Z,17.70
2022-12-03T22:56:50.753Z,17.77
2022-12-03T22:59:17.367Z,19.80
2022-12-03T23:01:43.959Z,18.88
2022-12-03T23:04:11.347Z,18.33
2022-12-03T23:06:38.552Z,18.30
2022-12-03T23:09:06.607Z,18.08
2022-12-03T23:11:33.769Z,15.70
2022-12-03T23:14:00.336Z,16.45
2022-12-03T23:16:30.156Z,15.80
2022-12-03T23:19:01.352Z,14.27
2022-12-03T23:21:31.123Z,8.35
2022-12-03T23:24:02.742Z,12.52
2022-12-03T23:28:56.588Z,14.63
2022-12-03T23:31:26.436Z,14.55
2022-12-03T23:33:53.985Z,12.35
2022-12-03T23:36:21.392Z,13.30
2022-12-03T23:38:48.179Z,14.50
2022-12-03T23:41:17.950Z,14.63
2022-12-03T23:43:44.674Z,11.23
2022-12-03T23:46:14.351Z,16.67
2022-12-03T23:48:42.011Z,17.83
2022-12-03T23:51:11.006Z,13.93
2022-12-03T23:53:38.627Z,13.05
2022-12-03T23:56:11.853Z,13.35
2022-12-03T23:58:38.853Z,16.27
